Time;durP1;ratioP1;P1;durP2;ratioP2;P2;SDS_P1;SDS_P2;PMS_P1;PMS_P2;Temp;Humidity;BMP_temperature;BMP_pressure;BME280_temperature;BME280_humidity;BME280_pressure;Samples;Min_cycle;Max_cycle;Signal;HPM_P1;HPM_P2
2022/01/15 00:01:41;;;;;;;5.85;3.50;;;;;;;;;;5028998;28;20131;-72
2022/01/15 00:04:08;;;;;;;5.20;3.70;;;;;;;;;;5030093;28;20046;-73
2022/01/15 00:06:35;;;;;;;4.15;3.30;;;;;;;;;;5027189;28;20144;-72
2022/01/15 00:09:02;;;;;;;5.22;3.47;;;;;;;;;;5029946;28;20132;-73
2022/01/15 00:11:30;;;;;;;4.70;3.35;;;13.80;66.50;;;;;;5030605;28;20057;-73
2022/01/15 00:14:10;;;;;;;5.57;3.40;;;;;;;;;;5030766;28;20144;-73
2022/01/15 00:16:46;;;;;;;5.30;3.15;;;;;;;;;;5030356;28;20136;-72
2022/01/15 00:19:15;;;;;;;4.88;3.10;;;;;;;;;;5029967;28;20499;-73
2022/01/15 00:21:41;;;;;;;4.57;3.00;;;13.90;66.80;;;;;;5030016;28;20465;-73
2022/01/15 00:24:08;;;;;;;6.60;3.47;;;13.70;67.00;;;;;;5030383;28;20128;-73
2022/01/15 00:26:36;;;;;;;5.10;3.20;;;13.80;58.50;;;;;;5029856;28;20140;-73
2022/01/15 00:29:03;;;;;;;4.78;3.20;;;;;;;;;;5030207;28;20132;-72
2022/01/15 00:31:30;;;;;;;3.95;3.00;;;13.70;66.20;;;;;;5029819;28;20145;-73
2022/01/15 00:33:57;;;;;;;4.00;2.92;;;13.70;67.10;;;;;;5029859;28;20124;-73
2022/01/15 00:36:23;;;;;;;5.10;3.42;;;13.50;64.20;;;;;;5030152;28;20566;-73
2022/01/15 00:38:50;;;;;;;4.45;2.50;;;13.90;67.00;;;;;;5030007;28;20136;-72
2022/01/15 00:41:18;;;;;;;4.30;2.97;;;13.40;66.80;;;;;;5029964;28;20467;-73
2022/01/15 00:43:46;;;;;;;5.10;2.60;;;13.70;67.30;;;;;;5031304;28;20055;-73
2022/01/15 00:46:13;;;;;;;4.68;2.90;;;13.80;67.00;;;;;;5033364;28;20136;-73
2022/01/15 00:48:40;;;;;;;4.60;2.90;;;;;;;;;;5034959;28;20137;-72
2022/01/15 00:51:06;;;;;;;3.45;2.70;;;13.70;67.00;;;;;;5033504;28;20136;-73
2022/01/15 00:53:33;;;;;;;4.10;2.88;;;13.60;67.10;;;;;;5033781;28;20457;-73
2022/01/15 00:56:00;;;;;;;4.60;2.63;;;13.40;60.60;;;;;;5033744;28;20136;-73
2022/01/15 00:58:27;;;;;;;3.55;2.50;;;13.80;62.40;;;;;;5033759;28;20083;-73
2022/01/15 01:00:55;;;;;;;3.22;2.38;;;13.60;67.20;;;;;;5033338;28;20128;-73
2022/01/15 01:03:22;;;;;;;3.90;2.50;;;;;;;;;;5033682;28;20144;-73
2022/01/15 01:05:49;;;;;;;3.88;2.50;;;13.70;67.30;;;;;;5033396;28;20129;-73
2022/01/15 01:08:16;;;;;;;4.22;2.80;;;;;;;;;;5033637;28;20055;-73
2022/01/15 01:10:52;;;;;;;3.97;2.67;;;13.30;65.50;;;;;;5032976;28;20136;-73
2022/01/15 01:24:33;;;;;;;3.28;2.28;;;13.60;67.50;;;;;;5019638;28;20045;-73
2022/01/15 01:27:03;;;;;;;2.60;2.05;;;13.60;67.20;;;;;;5032849;28;20064;-73
2022/01/15 01:29:34;;;;;;;3.35;2.13;;;13.40;67.40;;;;;;5031527;28;20056;-73
2022/01/15 01:32:03;;;;;;;3.53;2.30;;;13.60;67.40;;;;;;5033217;28;20395;-73
2022/01/15 01:34:33;;;;;;;3.08;2.30;;;13.60;67.30;;;;;;5033281;28;20067;-73
2022/01/15 01:37:06;;;;;;;3.17;2.30;;;13.60;67.40;;;;;;5032887;28;20453;-73
2022/01/15 01:39:42;;;;;;;2.47;1.95;;;;;;;;;;5033536;28;20096;-73
2022/01/15 01:42:15;;;;;;;2.85;1.98;;;13.60;67.50;;;;;;5032896;28;20139;-73
2022/01/15 01:45:01;;;;;;;3.20;2.17;;;13.60;66.00;;;;;;5032723;28;20067;-73
2022/01/15 01:47:39;;;;;;;;;;;13.60;59.20;;;;;;5033416;28;20066;-73
2022/01/15 01:50:07;;;;;;;3.22;1.90;;;13.40;67.40;;;;;;5032120;28;19967;-73
2022/01/15 01:52:34;;;;;;;3.10;1.83;;;;;;;;;;5032856;28;20088;-73
2022/01/15 01:55:01;;;;;;;3.95;2.30;;;;;;;;;;5032569;28;20128;-73
2022/01/15 01:57:28;;;;;;;2.28;1.70;;;13.60;67.20;;;;;;5032411;28;20570;-73
2022/01/15 01:59:55;;;;;;;2.63;1.95;;;13.40;67.20;;;;;;5032361;28;20120;-73
2022/01/15 02:02:22;;;;;;;2.33;1.80;;;;;;;;;;5032780;28;20145;-72
2022/01/15 02:04:50;;;;;;;2.63;1.90;;;13.20;67.10;;;;;;5032369;28;20162;-73
2022/01/15 02:07:16;;;;;;;2.80;1.88;;;13.50;67.20;;;;;;5032372;28;20149;-73
2022/01/15 02:09:43;;;;;;;2.90;1.90;;;13.60;67.20;;;;;;5032713;28;20608;-73
2022/01/15 02:12:10;;;;;;;1.90;1.60;;;13.50;63.90;;;;;;5032263;28;20073;-72
2022/01/15 02:14:37;;;;;;;2.63;1.83;;;13.20;67.10;;;;;;5032353;28;20053;-73
2022/01/15 02:17:04;;;;;;;1.77;1.48;;;13.30;59.00;;;;;;5032076;28;20059;-73
2022/01/15 02:19:33;;;;;;;3.30;1.90;;;13.50;58.80;;;;;;5032064;28;20526;-73
2022/01/15 02:24:44;;;;;;;2.03;1.40;;;;;;;;;;5031824;28;20641;-73
2022/01/15 02:27:11;;;;;;;2.28;1.80;;;13.50;67.40;;;;;;5031938;28;20303;-73
2022/01/15 02:29:38;;;;;;;2.17;1.60;;;;;;;;;;5032426;28;20053;-73
2022/01/15 02:32:05;;;;;;;2.40;1.70;;;13.50;62.70;;;;;;5031919;28;20550;-73
2022/01/15 02:34:34;;;;;;;2.22;1.65;;;13.40;58.70;;;;;;5031893;28;20132;-73
2022/01/15 02:37:01;;;;;;;2.40;1.60;;;;;;;;;;5031881;28;20137;-73
2022/01/15 02:39:28;;;;;;;2.20;1.52;;;;;;;;;;5031946;28;20137;-73
2022/01/15 02:41:55;;;;;;;1.58;1.33;;;13.40;67.20;;;;;;5031829;28;20132;-73
2022/01/15 02:44:22;;;;;;;2.13;1.38;;;13.40;67.20;;;;;;5031847;28;20152;-73
2022/01/15 02:49:34;;;;;;;2.15;1.40;;;13.50;67.00;;;;;;5031498;28;20045;-73
2022/01/15 02:52:02;;;;;;;2.10;1.50;;;;;;;;;;5031221;28;20054;-72
2022/01/15 02:54:29;;;;;;;2.30;1.50;;;;;;;;;;5032115;28;20049;-73
2022/01/15 02:56:56;;;;;;;2.17;1.50;;;13.50;64.30;;;;;;5030907;28;20132;-73
2022/01/15 02:59:25;;;;;;;2.58;1.45;;;;;;;;;;5030944;28;20248;-73
2022/01/15 03:01:51;;;;;;;2.03;1.30;;;13.50;67.20;;;;;;5031722;28;20560;-73
2022/01/15 03:04:18;;;;;;;1.55;1.30;;;;;;;;;;5031452;28;20136;-73
2022/01/15 03:06:47;;;;;;;2.22;1.35;;;13.50;60.40;;;;;;5030719;28;20570;-73
2022/01/15 03:09:13;;;;;;;1.67;1.30;;;13.60;63.00;;;;;;5031492;28;20081;-73
2022/01/15 03:11:40;;;;;;;1.70;1.30;;;13.60;67.10;;;;;;5031209;28;20128;-73
2022/01/15 03:14:07;;;;;;;1.88;1.40;;;;;;;;;;5031716;28;20053;-72
2022/01/15 03:16:34;;;;;;;1.70;1.30;;;;;;;;;;5031322;28;20108;-73
2022/01/15 03:19:01;;;;;;;1.80;1.40;;;;;;;;;;5030744;28;20571;-73
2022/01/15 03:21:28;;;;;;;1.92;1.20;;;13.70;67.00;;;;;;5031398;28;20152;-73
2022/01/15 03:23:56;;;;;;;1.60;1.38;;;13.60;67.00;;;;;;5031200;28;20059;-73
2022/01/15 03:26:23;;;;;;;1.88;1.27;;;;;;;;;;5030842;28;20132;-73
2022/01/15 03:28:51;;;;;;;1.92;1.30;;;;;;;;;;5031295;28;20136;-73
2022/01/15 03:31:18;;;;;;;1.63;1.30;;;;;;;;;;5030964;28;20136;-72
2022/01/15 03:33:44;;;;;;;1.90;1.27;;;13.60;67.00;;;;;;5031061;28;20128;-73
2022/01/15 03:36:11;;;;;;;2.08;1.40;;;13.60;66.80;;;;;;5030293;28;20140;-73
2022/01/15 03:38:38;;;;;;;1.33;1.13;;;;;;;;;;5031443;28;20124;-72
2022/01/15 03:41:07;;;;;;;2.30;1.40;;;13.30;66.70;;;;;;5030653;28;20466;-73
2022/01/15 03:43:33;;;;;;;1.38;1.20;;;13.40;66.70;;;;;;5030525;28;20051;-73
2022/01/15 03:46:00;;;;;;;1.95;1.20;;;;;;;;;;5030221;28;20084;-72
2022/01/15 03:48:27;;;;;;;2.70;1.30;;;13.70;66.90;;;;;;5031583;28;20125;-73
2022/01/15 03:50:54;;;;;;;2.00;1.50;;;;;;;;;;5029565;28;20111;-73
2022/01/15 03:53:22;;;;;;;1.40;1.10;;;;;;;;;;5030012;28;20136;-73
2022/01/15 03:55:49;;;;;;;1.55;1.25;;;13.30;66.80;;;;;;5016013;28;20049;-73
2022/01/15 03:58:17;;;;;;;1.35;1.02;;;13.60;58.20;;;;;;5030768;28;20068;-73
2022/01/15 04:00:45;;;;;;;1.20;1.05;;;;;;;;;;5030264;28;20060;-73
2022/01/15 04:03:11;;;;;;;1.58;1.13;;;13.80;67.10;;;;;;5030408;28;20085;-73
2022/01/15 04:05:38;;;;;;;1.77;1.10;;;13.10;66.50;;;;;;5030161;28;20513;-73
2022/01/15 04:08:06;;;;;;;1.20;1.10;;;13.70;61.00;;;;;;5030606;28;20096;-73
2022/01/15 04:10:33;;;;;;;1.17;1.00;;;;;;;;;;5030086;28;20049;-73
2022/01/15 04:13:00;;;;;;;1.40;1.13;;;;;;;;;;5029910;28;20053;-73
2022/01/15 04:15:28;;;;;;;1.15;1.00;;;13.60;58.20;;;;;;5030149;28;20532;-73
2022/01/15 04:17:55;;;;;;;1.33;1.15;;;;;;;;;;5030508;28;20065;-73
2022/01/15 04:20:23;;;;;;;1.20;1.00;;;13.90;67.20;;;;;;5030262;28;20451;-73
2022/01/15 04:22:51;;;;;;;1.17;0.90;;;13.40;62.20;;;;;;5029885;28;20469;-73
2022/01/15 04:25:18;;;;;;;1.20;1.08;;;13.30;64.20;;;;;;5029256;28;20450;-73
2022/01/15 04:27:45;;;;;;;1.35;1.00;;;;;;;;;;5029931;28;20092;-73
2022/01/15 04:30:13;;;;;;;1.27;0.90;;;13.80;64.60;;;;;;5030269;28;20045;-73
2022/01/15 04:32:41;;;;;;;1.10;1.00;;;13.60;66.60;;;;;;5029784;28;20141;-72
2022/01/15 04:35:08;;;;;;;1.60;1.05;;;13.70;59.90;;;;;;5029716;28;20054;-73
2022/01/15 04:37:39;;;;;;;1.65;1.15;;;;;;;;;;5030116;28;20584;-72
2022/01/15 04:40:06;;;;;;;1.15;0.90;;;13.70;61.80;;;;;;5029730;28;20053;-73
2022/01/15 04:42:34;;;;;;;1.85;1.10;;;;;;;;;;5031233;28;20052;-73
2022/01/15 04:45:03;;;;;;;1.17;0.90;;;13.80;66.80;;;;;;5029295;28;20461;-73
2022/01/15 04:47:30;;;;;;;2.10;1.10;;;;;;;;;;5029706;28;20533;-73
2022/01/15 04:49:59;;;;;;;1.38;1.00;;;13.80;66.90;;;;;;5029583;28;20494;-73
2022/01/15 04:52:25;;;;;;;1.35;1.10;;;13.80;66.70;;;;;;5028851;28;20061;-73
2022/01/15 04:54:53;;;;;;;1.10;1.00;;;;;;;;;;5027730;28;20045;-71
2022/01/15 04:57:19;;;;;;;1.85;1.00;;;13.70;66.40;;;;;;5031047;28;20067;-71
2022/01/15 04:59:46;;;;;;;1.17;1.00;;;13.70;61.20;;;;;;5029453;28;20049;-70
2022/01/15 05:02:13;;;;;;;1.00;0.90;;;;;;;;;;5029891;28;20124;-70
2022/01/15 05:04:40;;;;;;;1.35;0.93;;;;;;;;;;5029575;28;20054;-70
2022/01/15 05:07:08;;;;;;;1.48;1.27;;;14.00;60.10;;;;;;5030466;28;20052;-71
2022/01/15 05:09:35;;;;;;;1.30;1.00;;;14.50;66.60;;;;;;5029630;28;20057;-70
2022/01/15 05:12:08;;;;;;;0.98;0.90;;;;;;;;;;5031265;28;20112;-71
2022/01/15 05:14:35;;;;;;;1.73;0.88;;;14.20;66.40;;;;;;5029610;28;20061;-70
2022/01/15 05:17:02;;;;;;;0.80;0.80;;;14.00;66.50;;;;;;5029614;28;20134;-70
2022/01/15 05:19:29;;;;;;;1.25;1.08;;;;;;;;;;5030429;28;20053;-70
2022/01/15 05:21:57;;;;;;;0.93;0.90;;;14.50;66.80;;;;;;5030580;28;20064;-71
2022/01/15 05:24:28;;;;;;;1.67;1.10;;;13.50;66.20;;;;;;5025370;28;20077;-70
2022/01/15 05:26:55;;;;;;;1.05;0.82;;;14.00;66.30;;;;;;5029965;28;20060;-71
2022/01/15 05:29:22;;;;;;;1.35;1.00;;;14.00;66.20;;;;;;5027251;28;20140;-73
2022/01/15 05:31:49;;;;;;;0.80;0.80;;;;;;;;;;5032822;28;20080;-73
2022/01/15 05:34:16;;;;;;;1.02;0.90;;;13.70;66.00;;;;;;5032997;28;20136;-73
2022/01/15 05:36:42;;;;;;;0.82;0.80;;;13.60;66.00;;;;;;5033321;28;20132;-73
2022/01/15 05:39:09;;;;;;;0.82;0.73;;;;;;;;;;5032756;28;20160;-73
2022/01/15 05:41:38;;;;;;;1.02;0.98;;;13.90;57.60;;;;;;5033069;28;20073;-73
2022/01/15 05:44:05;;;;;;;1.02;0.85;;;13.70;65.90;;;;;;5016861;28;20049;-73
2022/01/15 05:46:33;;;;;;;1.00;0.90;;;14.00;65.90;;;;;;5032666;28;20095;-73
2022/01/15 05:49:00;;;;;;;0.75;0.75;;;14.10;66.30;;;;;;5032607;28;20422;-73
2022/01/15 05:51:29;;;;;;;1.35;1.00;;;13.50;65.80;;;;;;5032375;28;20051;-73
2022/01/15 05:53:56;;;;;;;1.48;0.90;;;14.10;66.40;;;;;;5032712;28;20065;-73
2022/01/15 05:56:23;;;;;;;0.80;0.80;;;13.70;65.90;;;;;;5032610;28;20148;-73
2022/01/15 05:58:51;;;;;;;0.75;0.70;;;14.00;57.60;;;;;;5032673;28;20136;-73
2022/01/15 06:01:18;;;;;;;0.90;0.73;;;;;;;;;;5031674;28;20137;-73
2022/01/15 06:03:45;;;;;;;0.95;0.80;;;14.00;66.20;;;;;;5033118;28;20141;-73
2022/01/15 06:06:11;;;;;;;1.40;0.90;;;13.50;60.30;;;;;;5032617;28;20694;-73
2022/01/15 06:08:38;;;;;;;0.82;0.70;;;14.10;64.00;;;;;;5015502;28;20049;-73
2022/01/15 06:11:05;;;;;;;1.00;0.80;;;13.90;66.10;;;;;;5032232;28;20515;-73
2022/01/15 06:13:32;;;;;;;1.15;0.85;;;;;;;;;;5032551;28;20084;-73
2022/01/15 06:16:00;;;;;;;0.70;0.70;;;14.00;57.50;;;;;;5032910;28;20554;-73
2022/01/15 06:18:27;;;;;;;0.73;0.73;;;13.40;65.60;;;;;;5031399;28;20137;-73
2022/01/15 06:20:54;;;;;;;0.80;0.80;;;13.80;66.00;;;;;;5031451;28;20052;-73
2022/01/15 06:23:21;;;;;;;0.50;0.50;;;14.00;66.00;;;;;;5032230;28;20135;-73
2022/01/15 06:25:48;;;;;;;0.93;0.70;;;;;;;;;;5032239;28;20053;-73
2022/01/15 06:28:14;;;;;;;0.88;0.70;;;14.10;62.50;;;;;;5032010;28;20136;-72
2022/01/15 06:30:41;;;;;;;0.80;0.80;;;14.10;65.80;;;;;;5032313;28;20050;-73
2022/01/15 06:33:09;;;;;;;0.88;0.70;;;14.00;65.80;;;;;;5032458;28;20084;-73
2022/01/15 06:35:36;;;;;;;1.08;0.80;;;14.00;66.10;;;;;;5031562;28;20089;-73
2022/01/15 06:38:03;;;;;;;1.00;0.90;;;14.00;59.90;;;;;;5031901;28;20151;-73
2022/01/15 06:40:31;;;;;;;0.88;0.80;;;;;;;;;;5031668;28;20140;-73
2022/01/15 06:42:59;;;;;;;0.77;0.77;;;14.10;66.10;;;;;;5031092;28;20056;-73
2022/01/15 06:45:26;;;;;;;1.35;0.80;;;14.20;65.80;;;;;;5032074;28;20156;-73
2022/01/15 06:47:53;;;;;;;0.85;0.80;;;;;;;;;;5031558;28;20132;-73
2022/01/15 06:50:25;;;;;;;1.00;0.80;;;13.80;57.30;;;;;;5031863;28;20053;-73
2022/01/15 06:52:52;;;;;;;2.22;0.85;;;14.00;66.00;;;;;;5030723;28;20046;-73
2022/01/15 06:55:19;;;;;;;0.77;0.75;;;;;;;;;;5031413;28;20128;-73
2022/01/15 06:57:46;;;;;;;0.90;0.75;;;13.70;65.50;;;;;;5030016;28;20533;-73
2022/01/15 07:00:14;;;;;;;0.77;0.70;;;14.10;66.00;;;;;;5031279;28;20141;-73
2022/01/15 07:02:41;;;;;;;0.68;0.60;;;13.90;65.60;;;;;;5031462;28;20545;-73
2022/01/15 07:05:08;;;;;;;0.73;0.73;;;14.20;60.00;;;;;;5031567;28;20049;-73
2022/01/15 07:07:40;;;;;;;1.00;0.90;;;14.00;57.40;;;;;;5031687;28;20133;-73
2022/01/15 07:10:08;;;;;;;0.68;0.68;;;14.10;57.40;;;;;;5027686;28;20057;-73
2022/01/15 07:12:35;;;;;;;0.70;0.70;;;14.20;65.70;;;;;;5028082;28;20050;-73
2022/01/15 07:15:02;;;;;;;0.75;0.63;;;13.80;64.10;;;;;;5030978;28;20144;-73
2022/01/15 07:17:29;;;;;;;1.13;0.80;;;14.20;65.70;;;;;;5030999;28;20132;-73
2022/01/15 07:19:56;;;;;;;0.75;0.70;;;;;;;;;;5030414;28;20260;-73
2022/01/15 07:22:23;;;;;;;0.73;0.70;;;13.90;65.50;;;;;;5031616;28;20132;-73
2022/01/15 07:24:51;;;;;;;0.60;0.60;;;14.30;65.90;;;;;;5030849;28;20140;-73
2022/01/15 07:27:18;;;;;;;0.77;0.77;;;;;;;;;;5030830;28;20758;-73
2022/01/15 07:29:44;;;;;;;0.90;0.80;;;14.20;65.60;;;;;;5031419;28;20171;-73
2022/01/15 07:32:11;;;;;;;1.80;0.80;;;;;;;;;;5030185;28;20042;-73
2022/01/15 07:34:38;;;;;;;1.00;0.90;;;13.90;62.00;;;;;;5029928;28;20049;-72
2022/01/15 07:37:05;;;;;;;0.63;0.57;;;14.10;65.60;;;;;;5027430;28;20128;-73
2022/01/15 07:39:35;;;;;;;0.80;0.80;;;;;;;;;;5011800;28;20067;-73
2022/01/15 07:42:03;;;;;;;1.30;0.77;;;14.20;57.80;;;;;;5016696;28;20053;-73
2022/01/15 07:44:30;;;;;;;0.93;0.77;;;14.20;61.00;;;;;;5029386;28;20083;-73
2022/01/15 07:46:56;;;;;;;0.60;0.60;;;14.20;61.60;;;;;;5029396;28;20463;-73
2022/01/15 07:49:23;;;;;;;1.75;0.85;;;14.20;65.60;;;;;;5030067;28;20540;-73
2022/01/15 07:51:50;;;;;;;0.90;0.80;;;14.20;65.80;;;;;;5026182;28;20133;-76
2022/01/15 07:54:17;;;;;;;0.60;0.60;;;14.20;63.40;;;;;;5030260;28;20421;-73
2022/01/15 07:56:44;;;;;;;0.75;0.70;;;;;;;;;;5030601;28;20136;-73
2022/01/15 07:59:12;;;;;;;0.70;0.68;;;14.20;57.40;;;;;;5030575;28;20136;-72
2022/01/15 08:01:39;;;;;;;0.82;0.70;;;;;;;;;;5031253;28;20077;-73
2022/01/15 08:04:06;;;;;;;0.75;0.70;;;14.10;65.50;;;;;;5030912;28;20129;-73
2022/01/15 08:06:33;;;;;;;2.90;0.93;;;;;;;;;;5029807;28;20136;-73
2022/01/15 08:09:00;;;;;;;0.65;0.65;;;;;;;;;;5029800;28;20140;-73
2022/01/15 08:11:27;;;;;;;0.60;0.60;;;;;;;;;;5031200;28;20479;-73
2022/01/15 08:13:54;;;;;;;1.02;0.90;;;14.10;65.80;;;;;;5030353;28;20064;-72
2022/01/15 08:16:22;;;;;;;0.80;0.70;;;13.70;65.30;;;;;;5030373;28;20136;-72
2022/01/15 08:18:49;;;;;;;0.75;0.65;;;;;;;;;;5030548;28;20086;-73
2022/01/15 08:21:16;;;;;;;0.70;0.70;;;;;;;;;;5028575;28;20136;-73
2022/01/15 08:23:43;;;;;;;1.30;0.65;;;14.20;64.20;;;;;;5026863;28;20059;-73
2022/01/15 08:26:09;;;;;;;0.73;0.70;;;14.20;58.30;;;;;;5027413;28;20145;-73
2022/01/15 08:28:37;;;;;;;1.02;0.73;;;;;;;;;;5030299;28;20136;-72
2022/01/15 08:31:04;;;;;;;1.00;0.60;;;14.10;65.50;;;;;;5026148;28;20057;-72
2022/01/15 08:33:32;;;;;;;1.27;0.70;;;14.10;57.30;;;;;;5029396;28;20128;-72
2022/01/15 08:35:59;;;;;;;1.42;0.80;;;;;;;;;;5031294;28;20128;-72
2022/01/15 08:38:26;;;;;;;1.58;0.95;;;14.10;65.50;;;;;;5030385;28;20128;-72
2022/01/15 08:40:53;;;;;;;1.40;0.70;;;14.20;65.60;;;;;;5030207;28;20140;-73
2022/01/15 08:43:20;;;;;;;1.83;1.02;;;14.00;61.30;;;;;;5030621;28;20526;-72
2022/01/15 08:45:47;;;;;;;1.52;1.02;;;;;;;;;;5030406;28;20144;-72
2022/01/15 08:48:15;;;;;;;1.83;0.77;;;14.20;61.30;;;;;;5030599;28;20060;-71
2022/01/15 08:50:43;;;;;;;1.42;0.95;;;14.20;60.00;;;;;;5030071;28;20050;-72
2022/01/15 08:53:10;;;;;;;1.80;0.90;;;14.20;59.50;;;;;;5029512;28;20766;-71
2022/01/15 08:55:39;;;;;;;1.27;0.85;;;14.20;65.70;;;;;;5026960;28;20139;-72
2022/01/15 08:58:05;;;;;;;0.80;0.80;;;13.90;65.40;;;;;;5027859;28;20057;-72
2022/01/15 09:00:32;;;;;;;1.70;0.90;;;;;;;;;;5023006;28;20499;-70
2022/01/15 09:02:59;;;;;;;4.20;1.10;;;13.70;65.20;;;;;;5028544;28;20053;-72
2022/01/15 09:05:26;;;;;;;1.40;0.85;;;14.50;65.90;;;;;;5032506;28;20140;-71
2022/01/15 09:07:56;;;;;;;1.85;1.00;;;14.30;65.40;;;;;;5033505;28;20135;-71
2022/01/15 09:10:23;;;;;;;1.35;0.90;;;;;;;;;;5033268;28;20058;-71
2022/01/15 09:12:49;;;;;;;0.82;0.82;;;14.60;65.60;;;;;;5034051;28;20129;-71
2022/01/15 09:15:17;;;;;;;2.42;1.00;;;;;;;;;;5033163;28;20419;-71
2022/01/15 09:17:43;;;;;;;1.30;0.80;;;14.50;65.40;;;;;;5033203;28;20136;-71
2022/01/15 09:20:11;;;;;;;1.35;0.82;;;14.40;65.30;;;;;;5029174;28;20053;-72
2022/01/15 09:22:38;;;;;;;0.82;0.80;;;14.30;65.50;;;;;;5033592;28;20079;-72
2022/01/15 09:25:07;;;;;;;1.75;0.82;;;14.30;65.60;;;;;;5033176;28;20136;-71
2022/01/15 09:30:18;;;;;;;2.38;1.00;;;14.40;65.40;;;;;;5033874;28;20490;-71
2022/01/15 09:32:46;;;;;;;2.88;1.00;;;14.40;65.30;;;;;;5034718;28;20042;-71
2022/01/15 09:35:12;;;;;;;1.27;1.00;;;15.10;65.60;;;;;;5033176;28;20067;-71
2022/01/15 09:37:40;;;;;;;1.55;1.10;;;;;;;;;;5033350;28;20132;-71
2022/01/15 09:40:10;;;;;;;2.03;1.17;;;14.50;65.40;;;;;;5033091;28;20136;-73
2022/01/15 09:42:38;;;;;;;4.82;1.33;;;13.80;65.40;;;;;;5032481;28;20137;-72
2022/01/15 09:45:06;;;;;;;6.53;1.52;;;14.50;57.30;;;;;;5032595;28;20487;-73
2022/01/15 09:47:33;;;;;;;5.95;1.92;;;14.60;65.40;;;;;;5032317;28;20050;-74
2022/01/15 09:50:00;;;;;;;7.43;1.73;;;;;;;;;;5030265;28;20057;-74
2022/01/15 09:52:27;;;;;;;4.65;2.05;;;14.10;65.30;;;;;;5033134;28;20124;-74
2022/01/15 09:54:54;;;;;;;5.63;1.80;;;;;;;;;;5032644;28;20060;-73
2022/01/15 09:57:22;;;;;;;4.05;1.92;;;14.70;65.20;;;;;;5031947;28;20422;-74
2022/01/15 09:59:49;;;;;;;7.22;1.80;;;14.90;65.60;;;;;;5033113;28;20144;-74
2022/01/15 10:02:16;;;;;;;8.30;2.03;;;;;;;;;;5033084;28;20127;-74
2022/01/15 10:04:43;;;;;;;5.38;1.90;;;14.10;64.80;;;;;;5033107;28;20083;-74
2022/01/15 10:07:12;;;;;;;5.20;1.80;;;15.30;61.10;;;;;;5032077;28;20084;-74
2022/01/15 10:09:39;;;;;;;4.30;1.85;;;14.80;65.00;;;;;;5033047;28;20053;-74
2022/01/15 10:12:07;;;;;;;6.13;2.03;;;14.90;56.90;;;;;;5032457;28;20052;-73
2022/01/15 10:14:36;;;;;;;3.38;1.50;;;15.70;65.40;;;;;;5032320;28;20053;-74
2022/01/15 10:17:05;;;;;;;6.35;1.83;;;15.10;62.90;;;;;;5031986;28;20470;-74
2022/01/15 10:19:33;;;;;;;2.47;1.23;;;15.00;57.20;;;;;;5031551;28;20450;-74
2022/01/15 10:22:10;;;;;;;3.35;1.38;;;15.00;65.70;;;;;;5032578;28;20128;-74
2022/01/15 10:24:37;;;;;;;2.38;1.20;;;15.10;61.20;;;;;;5032505;28;20546;-74
2022/01/15 10:27:17;;;;;;;4.32;1.70;;;15.40;65.80;;;;;;5031722;28;20136;-74
2022/01/15 10:29:50;;;;;;;3.95;1.27;;;15.50;65.60;;;;;;5027755;28;20123;-74
2022/01/15 10:32:17;;;;;;;1.98;1.20;;;;;;;;;;5031329;28;20073;-74
2022/01/15 10:34:44;;;;;;;3.55;1.38;;;16.20;66.20;;;;;;5031997;28;20049;-73
2022/01/15 10:37:13;;;;;;;2.85;1.35;;;14.60;63.40;;;;;;5029507;28;20053;-73
2022/01/15 10:39:40;;;;;;;4.50;1.27;;;14.80;65.10;;;;;;5031847;28;20049;-73
2022/01/15 10:42:14;;;;;;;3.70;1.50;;;15.60;65.60;;;;;;5032299;28;20140;-74
2022/01/15 10:44:42;;;;;;;5.03;1.70;;;;;;;;;;5030811;28;20057;-74
2022/01/15 10:47:13;;;;;;;3.10;1.38;;;15.30;65.40;;;;;;5030086;28;20407;-74
2022/01/15 10:49:40;;;;;;;2.95;1.38;;;16.20;65.80;;;;;;5031020;28;20045;-74
2022/01/15 10:52:12;;;;;;;3.50;1.30;;;15.40;57.20;;;;;;5030606;28;20136;-73
2022/01/15 10:54:58;;;;;;;2.15;1.20;;;15.30;65.10;;;;;;5031600;28;20482;-74
2022/01/15 10:57:26;;;;;;;1.70;1.23;;;14.50;64.70;;;;;;5032175;28;20057;-74
2022/01/15 10:59:57;;;;;;;2.72;1.08;;;15.50;65.20;;;;;;5032552;28;20093;-74
2022/01/15 11:02:25;;;;;;;3.50;1.30;;;14.90;64.80;;;;;;5031294;28;20128;-74
2022/01/15 11:04:52;;;;;;;2.00;1.30;;;;;;;;;;5031125;28;20471;-74
2022/01/15 11:07:19;;;;;;;3.45;1.63;;;14.60;64.70;;;;;;5028798;28;20063;-74
2022/01/15 11:09:47;;;;;;;2.00;1.48;;;15.40;62.70;;;;;;5015445;28;20057;-74
2022/01/15 11:12:14;;;;;;;1.90;1.40;;;;;;;;;;5030088;28;20077;-74
2022/01/15 11:14:41;;;;;;;2.40;1.42;;;15.60;65.10;;;;;;5030145;28;20049;-73
2022/01/15 11:17:07;;;;;;;2.15;1.40;;;15.40;65.00;;;;;;5027590;28;20053;-73
2022/01/15 11:19:36;;;;;;;2.10;1.55;;;16.20;61.70;;;;;;5029808;28;20467;-74
2022/01/15 11:22:03;;;;;;;1.75;1.40;;;15.30;65.30;;;;;;5026396;28;20195;-73
2022/01/15 11:24:31;;;;;;;2.75;1.50;;;;;;;;;;5026404;28;20147;-73
2022/01/15 11:27:00;;;;;;;2.33;1.60;;;15.50;65.20;;;;;;5029133;28;20133;-73
2022/01/15 11:29:27;;;;;;;2.78;1.80;;;15.40;65.00;;;;;;5030943;28;20086;-73
2022/01/15 11:31:56;;;;;;;2.45;1.60;;;15.30;65.40;;;;;;5030365;28;20132;-72
2022/01/15 11:34:23;;;;;;;2.38;1.60;;;14.60;64.50;;;;;;5029425;28;20136;-72
2022/01/15 11:36:51;;;;;;;4.10;1.75;;;15.40;65.10;;;;;;5030778;28;20465;-72
2022/01/15 11:39:20;;;;;;;2.15;1.80;;;14.80;57.50;;;;;;5031104;28;20080;-73
2022/01/15 11:41:48;;;;;;;3.15;1.70;;;15.30;57.10;;;;;;5031617;28;20469;-73
2022/01/15 11:44:16;;;;;;;3.40;1.85;;;15.50;60.10;;;;;;5031150;28;20072;-72
2022/01/15 11:46:46;;;;;;;3.30;2.00;;;16.00;57.50;;;;;;5027056;28;20132;-73
2022/01/15 11:49:30;;;;;;;3.15;2.22;;;15.80;63.70;;;;;;5027870;28;20053;-73
2022/01/15 11:51:58;;;;;;;3.97;2.20;;;15.50;57.30;;;;;;5027882;28;20091;-73
2022/01/15 11:54:25;;;;;;;2.80;2.08;;;15.50;62.70;;;;;;5028712;28;20056;-73
2022/01/15 11:56:52;;;;;;;3.22;2.15;;;15.50;65.30;;;;;;5028271;28;20128;-73
2022/01/15 11:59:46;;;;;;;2.53;2.00;;;15.60;57.30;;;;;;5028577;28;20506;-73
2022/01/15 12:02:26;;;;;;;3.38;2.03;;;15.30;57.10;;;;;;5028498;28;20495;-73
2022/01/15 12:04:53;;;;;;;2.78;2.20;;;;;;;;;;5027909;28;20045;-73
2022/01/15 12:07:22;;;;;;;3.17;2.00;;;14.70;57.60;;;;;;5028436;28;20103;-73
2022/01/15 12:09:49;;;;;;;3.13;2.00;;;16.20;65.30;;;;;;5029140;28;20050;-73
2022/01/15 12:12:50;;;;;;;2.38;1.95;;;15.60;63.40;;;;;;5030301;28;20129;-73
2022/01/15 12:15:19;;;;;;;2.53;1.90;;;15.00;64.80;;;;;;5028505;28;20053;-73
2022/01/15 12:17:47;;;;;;;3.13;1.90;;;15.50;63.40;;;;;;5030366;28;20057;-73
2022/01/15 12:20:34;;;;;;;3.35;1.70;;;15.80;65.30;;;;;;5030200;28;20060;-73
2022/01/15 12:23:04;;;;;;;2.55;1.75;;;15.60;65.10;;;;;;5030080;28;20133;-73
2022/01/15 12:25:32;;;;;;;2.30;1.70;;;14.50;64.50;;;;;;5029903;28;20132;-73
2022/01/15 12:28:00;;;;;;;2.10;1.85;;;15.50;65.00;;;;;;5030149;28;20091;-73
2022/01/15 12:30:28;;;;;;;2.67;2.00;;;15.10;64.90;;;;;;5030339;28;20057;-73
2022/01/15 12:32:56;;;;;;;3.00;2.00;;;15.40;65.20;;;;;;5029587;28;20080;-73
2022/01/15 12:35:23;;;;;;;2.70;1.90;;;15.30;59.30;;;;;;5029639;28;20049;-73
2022/01/15 12:37:54;;;;;;;2.83;1.92;;;15.40;62.20;;;;;;5030158;28;20517;-73
2022/01/15 12:40:28;;;;;;;2.20;1.80;;;15.40;65.00;;;;;;5028723;28;20136;-73
2022/01/15 12:42:56;;;;;;;2.60;2.10;;;16.00;65.60;;;;;;5029886;28;20125;-73
2022/01/15 12:45:23;;;;;;;3.97;1.90;;;15.30;61.50;;;;;;5029602;28;20057;-73
2022/01/15 12:47:50;;;;;;;1.92;1.73;;;15.90;65.50;;;;;;5029735;28;20056;-73
2022/01/15 12:50:16;;;;;;;2.00;1.77;;;15.20;61.90;;;;;;4993599;28;1048554;-73
2022/01/15 12:52:43;;;;;;;2.47;1.80;;;15.90;65.30;;;;;;5030461;28;20136;-73
2022/01/15 12:55:10;;;;;;;2.80;2.03;;;15.50;65.20;;;;;;5030841;28;20140;-73
2022/01/15 12:57:43;;;;;;;2.63;1.98;;;14.50;64.70;;;;;;5030425;28;20053;-73
2022/01/15 13:00:11;;;;;;;2.05;1.73;;;15.20;65.40;;;;;;5030634;28;20659;-73
2022/01/15 13:02:38;;;;;;;3.15;1.98;;;15.70;65.40;;;;;;5030635;28;20132;-73
2022/01/15 13:05:05;;;;;;;1.73;1.60;;;15.10;59.80;;;;;;5030553;28;20132;-73
2022/01/15 13:07:50;;;;;;;3.95;1.88;;;15.10;65.20;;;;;;5030809;28;20463;-73
2022/01/15 13:10:31;;;;;;;2.70;1.90;;;15.00;57.40;;;;;;5030144;28;20256;-73
2022/01/15 13:12:59;;;;;;;2.15;1.70;;;15.00;65.20;;;;;;5030237;28;20054;-73
2022/01/15 13:15:27;;;;;;;3.83;1.80;;;15.10;65.20;;;;;;5030270;28;20128;-73
2022/01/15 13:17:54;;;;;;;2.20;1.65;;;15.00;65.40;;;;;;5030500;28;20132;-73
2022/01/15 13:20:28;;;;;;;2.75;1.92;;;15.10;65.30;;;;;;5029934;28;20124;-73
2022/01/15 13:22:55;;;;;;;1.70;1.40;;;15.20;65.60;;;;;;5029023;28;20132;-72
2022/01/15 13:25:22;;;;;;;2.00;1.50;;;14.60;58.20;;;;;;5028833;28;20045;-72
2022/01/15 13:27:48;;;;;;;2.20;1.80;;;14.90;65.40;;;;;;5028042;28;20046;-72
2022/01/15 13:30:16;;;;;;;2.00;1.70;;;14.90;57.50;;;;;;5029608;28;20482;-72
2022/01/15 13:32:52;;;;;;;2.97;1.55;;;14.90;57.50;;;;;;5030248;28;20136;-72
2022/01/15 13:35:19;;;;;;;;;;;14.90;58.00;;;;;;5030934;28;20387;-72
2022/01/15 13:37:53;;;;;;;2.75;1.88;;;14.80;57.70;;;;;;5029969;28;19921;-73